Gilkey, North Carolina
Current Conditions -  °F | °C
As of 10:55 AM on Saturday 20 Dec 2014 (Local Time) from KFQD Reporting Station
Overcast Overcast  
Wind Chill: 41°   Ceiling: 3000
Heat Index: 41°   Visibility: 10mi
Dew Point: 36°   Wind: 3mph
Humidity: 80%   Direction: 50°NE
Pressure: 30.26"   Gusts: NA
Location:  35.3722°N, 82.0134°W
Report Text: KFQD 201555Z AUTO 05003KT 10SM OVC030 05/02 A3026 RMK AO2 T00520020
Loading
Personal Weather Stations






























Interactive Weather Map New forecast layout! Learn more

10-Day Weather Forecast

Advertisements
Track Severe Weather on mobile